Time;durP1;ratioP1;P1;durP2;ratioP2;P2;SDS_P1;SDS_P2;PMS_P1;PMS_P2;Temp;Humidity;BMP_temperature;BMP_pressure;BME280_temperature;BME280_humidity;BME280_pressure;Samples;Min_cycle;Max_cycle;Signal;HPM_P1;HPM_P2
2023/12/19 00:00:48;;;;;;;4.33;3.90;;;;;;;-141.84;63.44;18566.16;4895451;29;20291;-57
2023/12/19 00:03:17;;;;;;;3.77;3.30;;;;;;;-141.84;63.54;18558.03;4895548;29;20274;-55
2023/12/19 00:05:46;;;;;;;4.27;3.80;;;;;;;-141.84;64.29;18521.47;4895613;29;20227;-57
2023/12/19 00:08:14;;;;;;;4.13;3.73;;;;;;;-141.84;65.02;18519.44;4887752;29;20715;-55
2023/12/19 00:10:44;;;;;;;5.33;4.20;;;;;;;-141.84;64.92;18531.63;4895384;29;20223;-57
2023/12/19 00:13:13;;;;;;;4.20;3.80;;;;;;;-141.84;64.43;18525.53;4895959;29;20199;-57
2023/12/19 00:15:42;;;;;;;4.27;3.70;;;;;;;-141.84;63.60;18547.88;4895149;29;20226;-56
2023/12/19 00:18:11;;;;;;;5.67;4.17;;;;;;;-141.84;64.20;18545.84;4895491;29;20317;-55
2023/12/19 00:20:39;;;;;;;4.63;4.10;;;;;;;-141.84;63.44;18533.66;4895297;29;20316;-55
2023/12/19 00:23:08;;;;;;;4.40;3.80;;;;;;;-141.84;61.79;18553.97;4895201;29;20317;-54
2023/12/19 00:25:36;;;;;;;4.87;3.57;;;;;;;-141.84;62.42;18556.00;4894959;29;20230;-55
2023/12/19 00:28:07;;;;;;;3.63;3.33;;;;;;;-141.84;60.64;18582.44;4895301;29;20210;-57
2023/12/19 00:30:36;;;;;;;6.17;4.07;;;;;;;-141.84;60.70;18543.81;4894950;29;20318;-57
2023/12/19 00:33:05;;;;;;;4.20;3.80;;;;;;;-141.84;61.94;18525.53;4894757;29;20643;-58
2023/12/19 00:35:34;;;;;;;4.37;3.50;;;;;;;-141.84;62.72;18523.50;4887250;29;20313;-57
2023/12/19 00:38:05;;;;;;;3.93;3.40;;;;;;;-141.84;63.27;18517.41;4894837;29;20338;-56
2023/12/19 00:40:33;;;;;;;3.97;3.57;;;;;;;-141.84;63.60;18525.53;4893243;29;20244;-58
2023/12/19 00:43:02;;;;;;;4.57;3.70;;;;;;;-141.84;63.47;18523.50;4895343;29;20666;-56
2023/12/19 00:45:32;;;;;;;4.53;3.90;;;;;;;-141.84;61.48;18566.16;4894900;29;20234;-55
2023/12/19 00:48:01;;;;;;;4.10;3.70;;;;;;;-141.84;61.13;18558.03;4895025;29;20239;-57
2023/12/19 00:50:29;;;;;;;3.83;3.53;;;;;;;-141.84;61.76;18545.84;4894918;29;20313;-55
2023/12/19 00:52:58;;;;;;;4.90;3.73;;;;;;;-141.84;59.12;18549.91;4894547;29;20230;-57
2023/12/19 00:55:27;;;;;;;4.60;3.67;;;;;;;-141.84;58.74;18572.25;4894752;29;20317;-56
2023/12/19 00:57:55;;;;;;;4.97;3.63;;;;;;;-141.84;58.12;18556.00;4894935;29;20219;-56
2023/12/19 01:00:24;;;;;;;4.40;3.77;;;;;;;-141.84;56.16;18574.28;4894819;29;20224;-57
2023/12/19 01:02:54;;;;;;;4.30;3.87;;;;;;;-141.84;56.78;18614.94;4902125;29;20234;-56
2023/12/19 01:05:23;;;;;;;4.17;3.70;;;;;;;-141.84;57.83;18582.44;4893938;29;20287;-57
2023/12/19 01:07:51;;;;;;;4.83;3.93;;;;;;;-141.84;57.75;18578.38;4894489;29;20242;-55
2023/12/19 01:10:20;;;;;;;4.27;3.87;;;;;;;-141.84;58.64;18562.09;4894440;29;20253;-57
2023/12/19 01:12:49;;;;;;;4.27;3.87;;;;;;;-141.84;58.21;18562.09;4894476;29;20286;-55
2023/12/19 01:15:18;;;;;;;4.90;3.97;;;;;;;-141.84;58.58;18584.47;4894080;29;20227;-57
2023/12/19 01:17:46;;;;;;;4.27;3.77;;;;;;;-141.84;59.30;18562.09;4894131;29;20227;-56
2023/12/19 01:20:16;;;;;;;4.73;3.90;;;;;;;-141.84;58.80;18578.38;4894456;29;20226;-56
2023/12/19 01:22:45;;;;;;;4.53;3.67;;;;;;;-141.84;59.91;18553.97;4894061;29;20202;-55
2023/12/19 01:25:13;;;;;;;4.93;4.37;;;;;;;-141.84;60.13;18529.59;4894746;29;20732;-58
2023/12/19 01:27:42;;;;;;;4.10;3.70;;;;;;;-141.84;60.98;18551.94;4894228;29;20235;-56
2023/12/19 01:30:11;;;;;;;5.03;3.93;;;;;;;-141.84;61.32;18545.84;4894218;29;20314;-57
2023/12/19 01:32:40;;;;;;;4.80;4.00;;;;;;;-141.84;61.88;18509.28;4894680;29;20235;-56
2023/12/19 01:35:09;;;;;;;4.10;3.70;;;;;;;-141.84;62.70;18533.66;4894463;29;20306;-57
2023/12/19 01:37:39;;;;;;;4.03;3.70;;;;;;;-141.84;63.39;18493.03;4887748;29;20234;-56
2023/12/19 01:40:08;;;;;;;4.20;3.60;;;;;;;-141.84;64.82;18511.31;4899051;29;20199;-57
2023/12/19 01:42:37;;;;;;;5.87;3.97;;;;;;;-141.84;64.34;18511.31;4897837;29;20295;-55
2023/12/19 01:45:10;;;;;;;4.83;4.20;;;;;;;-141.84;61.01;18553.97;4897968;29;20327;-58
2023/12/19 01:47:41;;;;;;;4.87;4.37;;;;;;;-141.84;59.93;18553.97;4898328;29;20226;-51
2023/12/19 01:50:10;;;;;;;4.50;4.10;;;;;;;-141.84;59.80;18545.84;4898207;29;20309;-56
2023/12/19 01:52:44;;;;;;;6.00;4.77;;;;;;;-141.84;59.79;18558.03;4897996;29;20206;-59
2023/12/19 01:55:15;;;;;;;4.80;4.30;;;;;;;-141.84;59.54;18545.84;4898235;29;20248;-57
2023/12/19 01:57:44;;;;;;;4.83;4.33;;;;;;;-141.84;60.77;18529.59;4897599;29;20718;-56
2023/12/19 02:00:15;;;;;;;4.70;4.20;;;;;;;-141.84;62.32;18549.91;4897772;29;20232;-59
2023/12/19 02:02:44;;;;;;;4.47;4.03;;;;;;;-141.84;62.09;18558.03;4904679;29;20229;-54
2023/12/19 02:05:14;;;;;;;4.27;3.87;;;;;;;-141.84;59.41;18562.09;4897847;29;20302;-60
2023/12/19 02:07:44;;;;;;;4.90;4.40;;;;;;;-141.84;60.19;18531.63;4897972;29;20308;-56
2023/12/19 02:10:13;;;;;;;4.73;4.27;;;;;;;-141.84;59.03;18545.84;4896962;29;20286;-57
2023/12/19 02:12:43;;;;;;;4.57;4.17;;;;;;;-141.84;58.83;18570.22;4897648;29;20311;-58
2023/12/19 02:15:13;;;;;;;4.63;3.97;;;;;;;-141.84;57.69;18566.16;4897587;29;20289;-56
2023/12/19 02:17:42;;;;;;;5.00;4.03;;;;;;;-141.84;59.26;18539.75;4897507;29;20254;-57
2023/12/19 02:20:11;;;;;;;5.90;5.23;;;;;;;-141.84;58.51;18580.41;4898271;29;20353;-55
2023/12/19 02:22:40;;;;;;;4.50;4.10;;;;;;;-141.84;59.82;18564.13;4898603;29;20207;-55
2023/12/19 02:25:10;;;;;;;4.57;4.17;;;;;;;-141.84;60.73;18558.03;4898709;29;20203;-57
2023/12/19 02:27:39;;;;;;;5.10;4.10;;;;;;;-141.84;59.64;18592.59;4897675;29;20313;-56
2023/12/19 02:30:09;;;;;;;4.90;4.40;;;;;;;-141.84;59.70;18513.34;4889581;29;20283;-53
2023/12/19 02:32:38;;;;;;;4.53;3.93;;;;;;;-141.84;59.75;18568.19;4893385;29;20628;-57
2023/12/19 02:35:07;;;;;;;4.13;3.73;;;;;;;-141.84;60.01;18566.16;4887349;29;20237;-56
2023/12/19 02:37:35;;;;;;;5.37;3.97;;;;;;;-141.84;59.21;18558.03;4886448;29;20280;-55
2023/12/19 02:40:05;;;;;;;4.73;4.23;;;;;;;-141.84;58.05;18572.25;4887129;29;20203;-57
2023/12/19 02:42:40;;;;;;;4.37;3.93;;;;;;;-141.84;57.60;18570.22;4887024;29;20682;-55
2023/12/19 02:45:11;;;;;;;5.00;3.90;;;;;;;-141.84;57.89;18580.41;4889199;29;20282;-56
2023/12/19 02:47:39;;;;;;;5.03;3.93;;;;;;;-141.84;56.90;18578.38;4888778;29;20237;-54
2023/12/19 02:50:08;;;;;;;4.40;3.77;;;;;;;-141.84;57.50;18570.22;4886417;29;20232;-55
2023/12/19 02:52:37;;;;;;;6.10;4.27;;;;;;;-141.84;58.37;18578.38;4886320;29;20262;-59
2023/12/19 02:55:06;;;;;;;4.10;3.70;;;;;;;-141.84;58.33;18553.97;4896977;29;20263;-54
2023/12/19 02:57:38;;;;;;;5.37;4.50;;;;;;;-141.84;58.17;18566.16;4912364;29;20230;-56
2023/12/19 03:00:08;;;;;;;4.83;4.20;;;;;;;-141.84;58.94;18600.72;4904915;29;20223;-58
2023/12/19 03:02:36;;;;;;;4.50;4.10;;;;;;;-141.84;57.81;18600.72;4911619;29;20265;-56
2023/12/19 03:05:05;;;;;;;5.80;4.30;;;;;;;-141.84;57.93;18564.13;4908852;29;20638;-57
2023/12/19 03:07:35;;;;;;;4.43;4.03;;;;;;;-141.84;58.25;18582.44;4907392;29;20206;-54
2023/12/19 03:10:07;;;;;;;6.23;4.40;;;;;;;-141.84;57.75;18582.44;4911231;29;20213;-54
2023/12/19 03:12:37;;;;;;;4.40;4.00;;;;;;;-141.84;58.14;18558.03;4908421;29;20802;-58
2023/12/19 03:15:07;;;;;;;4.60;4.20;;;;;;;-141.84;57.25;18590.56;4898540;29;20591;-56
2023/12/19 03:17:35;;;;;;;4.90;4.13;;;;;;;-141.84;57.59;18598.69;4906589;29;20266;-63
2023/12/19 03:20:05;;;;;;;5.07;4.37;;;;;;;-141.84;58.12;18556.00;4907196;29;20230;-55
2023/12/19 03:22:34;;;;;;;4.83;4.40;;;;;;;-141.84;58.79;18558.03;4906973;29;20202;-55
2023/12/19 03:25:03;;;;;;;4.60;4.20;;;;;;;-141.84;59.05;18578.38;4907488;29;20274;-55
2023/12/19 03:27:31;;;;;;;5.33;4.37;;;;;;;-141.84;59.19;18594.63;4907074;29;20325;-62
2023/12/19 03:30:01;;;;;;;5.10;4.57;;;;;;;-141.84;59.50;18543.81;4906856;29;20269;-55
2023/12/19 03:32:30;;;;;;;5.00;4.47;;;;;;;-141.84;59.83;18553.97;4906478;29;20640;-57
2023/12/19 03:34:58;;;;;;;4.87;4.13;;;;;;;-141.84;59.67;18537.72;4907166;29;20241;-59
2023/12/19 03:37:27;;;;;;;5.87;4.30;;;;;;;-141.84;60.04;18588.53;4906587;29;20212;-59
2023/12/19 03:39:56;;;;;;;5.13;4.33;;;;;;;-141.84;59.15;18580.41;4902223;29;20202;-55
2023/12/19 03:42:24;;;;;;;5.17;4.57;;;;;;;-141.84;58.21;18578.38;4903878;29;20586;-56
2023/12/19 03:44:53;;;;;;;5.60;4.90;;;;;;;-141.84;57.48;18568.19;4906798;29;20234;-57
2023/12/19 03:47:23;;;;;;;4.90;4.00;;;;;;;-141.84;58.03;18564.13;4906799;29;20222;-56
2023/12/19 03:49:52;;;;;;;5.83;4.73;;;;;;;-141.84;57.97;18558.03;4905954;29;20233;-55
2023/12/19 03:52:21;;;;;;;5.00;4.30;;;;;;;-141.84;56.59;18598.69;4904878;29;20233;-59
2023/12/19 03:54:50;;;;;;;5.47;4.60;;;;;;;-141.84;56.67;18596.66;4903816;29;20246;-53
2023/12/19 03:57:19;;;;;;;5.30;4.63;;;;;;;-141.84;57.26;18602.75;4905273;29;20234;-57
2023/12/19 03:59:47;;;;;;;5.20;4.40;;;;;;;-141.84;55.78;18604.78;4905486;29;20636;-56
2023/12/19 04:02:16;;;;;;;5.00;4.50;;;;;;;-141.84;56.32;18619.00;4912209;29;20721;-55
2023/12/19 04:04:46;;;;;;;5.50;4.57;;;;;;;-141.84;57.20;18606.81;4905903;29;20273;-56
2023/12/19 04:07:14;;;;;;;7.07;4.97;;;;;;;-141.84;57.62;18590.56;4902132;29;20292;-55
2023/12/19 04:09:43;;;;;;;7.53;4.93;;;;;;;-141.84;57.73;18586.50;4911418;29;20265;-56
2023/12/19 04:12:13;;;;;;;6.87;5.50;;;;;;;-141.84;58.47;18598.69;4905479;29;20242;-56
2023/12/19 04:14:41;;;;;;;6.00;5.30;;;;;;;-141.84;58.14;18623.06;4900325;29;20234;-55
2023/12/19 04:17:10;;;;;;;6.40;5.17;;;;;;;-141.84;58.16;18596.66;4900019;29;20314;-56
2023/12/19 04:19:42;;;;;;;6.20;5.60;;;;;;;-141.84;58.30;18594.63;4905366;29;20649;-56
2023/12/19 04:22:12;;;;;;;7.87;5.33;;;;;;;-141.84;58.32;18619.00;4906614;29;20558;-55
2023/12/19 04:24:41;;;;;;;7.07;5.43;;;;;;;-141.84;58.86;18576.31;4904065;29;20749;-57
2023/12/19 04:27:10;;;;;;;7.00;5.47;;;;;;;-141.84;58.80;18614.94;4903565;29;20233;-56
2023/12/19 04:29:38;;;;;;;6.03;5.37;;;;;;;-141.84;59.50;18596.66;4903259;29;20313;-57
2023/12/19 04:32:08;;;;;;;5.80;5.20;;;;;;;-141.84;58.75;18606.81;4905732;29;20235;-56
2023/12/19 04:34:36;;;;;;;6.13;5.50;;;;;;;-141.84;58.29;18602.75;4913473;29;20230;-55
2023/12/19 04:37:05;;;;;;;6.03;5.43;;;;;;;-141.84;59.13;18586.50;4906330;29;20206;-57
2023/12/19 04:39:35;;;;;;;7.53;5.63;;;;;;;-141.84;58.13;18588.53;4910467;29;20227;-52
2023/12/19 04:42:06;;;;;;;5.50;4.93;;;;;;;-141.84;57.03;18608.84;4909235;29;20250;-57
2023/12/19 04:44:35;;;;;;;8.00;5.87;;;;;;;-141.84;58.37;18594.63;4904275;29;20243;-57
2023/12/19 04:47:04;;;;;;;6.53;5.23;;;;;;;-141.84;58.18;18586.50;4903416;29;20253;-56
2023/12/19 04:49:33;;;;;;;7.10;5.53;;;;;;;-141.84;57.26;18600.72;4903170;29;20356;-56
2023/12/19 04:52:02;;;;;;;6.50;5.30;;;;;;;-141.84;57.53;18606.81;4908164;29;20206;-57
2023/12/19 04:54:30;;;;;;;7.20;6.20;;;;;;;-141.84;56.67;18623.06;4905124;29;20302;-54
2023/12/19 04:57:00;;;;;;;6.30;5.30;;;;;;;-141.84;56.54;18614.94;4905593;29;20725;-57
2023/12/19 04:59:30;;;;;;;6.30;5.47;;;;;;;-141.84;57.85;18590.56;4902702;29;20233;-57
2023/12/19 05:01:59;;;;;;;5.83;5.17;;;;;;;-141.84;57.49;18619.00;4914425;29;20233;-56
2023/12/19 05:04:28;;;;;;;6.53;5.83;;;;;;;-141.84;57.14;18621.03;4904787;29;20201;-56
2023/12/19 05:06:56;;;;;;;6.70;5.50;;;;;;;-141.84;56.32;18616.97;4905749;29;20737;-56
2023/12/19 05:09:25;;;;;;;7.93;5.67;;;;;;;-141.84;56.49;18647.44;4909185;29;20247;-58
2023/12/19 05:11:54;;;;;;;7.83;5.83;;;;;;;-141.84;56.67;18623.06;4903165;29;20647;-54
2023/12/19 05:14:24;;;;;;;6.63;5.37;;;;;;;-141.84;56.44;18637.28;4907166;29;20318;-54
2023/12/19 05:16:52;;;;;;;6.80;5.40;;;;;;;-141.84;56.05;18647.44;4909031;29;20639;-55
2023/12/19 05:19:21;;;;;;;6.00;5.40;;;;;;;-141.84;56.85;18661.66;4905698;29;20204;-54
2023/12/19 05:21:50;;;;;;;5.47;4.97;;;;;;;-141.84;56.58;18641.34;4905931;29;20282;-57
2023/12/19 05:24:19;;;;;;;6.07;5.47;;;;;;;-141.84;56.83;18619.00;4905528;29;20222;-56
2023/12/19 05:26:48;;;;;;;13.77;10.20;;;;;;;-141.84;57.23;18643.38;4904465;29;20318;-55
2023/12/19 05:29:16;;;;;;;7.50;6.30;;;;;;;-141.84;57.68;18631.19;4904799;29;20264;-55
2023/12/19 05:31:46;;;;;;;5.93;5.33;;;;;;;-141.84;57.52;18610.88;4910210;29;20923;-56
2023/12/19 05:34:15;;;;;;;5.83;5.20;;;;;;;-141.84;57.76;18625.09;4898383;29;20257;-58
2023/12/19 05:36:46;;;;;;;6.53;5.60;;;;;;;-141.84;57.42;18590.56;4899387;29;20287;-58
2023/12/19 05:39:17;;;;;;;5.83;5.23;;;;;;;-141.84;57.44;18639.31;4902824;29;20735;-55
2023/12/19 05:41:45;;;;;;;6.90;5.33;;;;;;;-141.84;56.74;18635.25;4904917;29;20714;-57
2023/12/19 05:44:16;;;;;;;7.50;5.77;;;;;;;-141.84;57.50;18608.84;4904643;29;20316;-57
2023/12/19 05:46:46;;;;;;;6.73;5.40;;;;;;;-141.84;57.25;18629.16;4902750;29;20277;-53
2023/12/19 05:49:14;;;;;;;7.03;5.57;;;;;;;-141.84;56.23;18606.81;4902905;29;20231;-57
2023/12/19 05:51:43;;;;;;;5.80;5.20;;;;;;;-141.84;57.05;18625.09;4904629;29;20250;-57
2023/12/19 05:54:12;;;;;;;5.97;5.20;;;;;;;-141.84;56.34;18647.44;4904470;29;20249;-59
2023/12/19 05:56:40;;;;;;;6.60;5.53;;;;;;;-141.84;56.42;18661.66;4904933;29;20238;-55
2023/12/19 05:59:09;;;;;;;5.87;5.23;;;;;;;-141.84;56.69;18639.31;4904310;29;20233;-57
2023/12/19 06:01:43;;;;;;;6.67;5.33;;;;;;;-141.84;56.47;18643.38;4902409;29;20206;-58
2023/12/19 06:04:13;;;;;;;7.23;5.20;;;;;;;-141.84;56.81;18625.09;4906500;29;20194;-55
2023/12/19 06:06:44;;;;;;;8.43;5.77;;;;;;;-141.84;56.45;18623.06;4904326;29;20236;-56
2023/12/19 06:09:13;;;;;;;6.40;5.13;;;;;;;-141.84;55.96;18649.47;4907939;29;20226;-58
2023/12/19 06:11:41;;;;;;;5.40;4.87;;;;;;;-141.84;55.64;18616.97;4902021;29;20234;-56
2023/12/19 06:14:10;;;;;;;5.90;5.30;;;;;;;-141.84;54.67;18659.63;4909676;29;20322;-57
2023/12/19 06:16:38;;;;;;;6.57;5.20;;;;;;;-141.84;54.09;18641.34;4901991;29;20205;-57
2023/12/19 06:19:07;;;;;;;5.67;5.00;;;;;;;-141.84;52.69;18663.69;4902567;29;20203;-54
2023/12/19 06:21:37;;;;;;;6.40;5.43;;;;;;;-141.84;53.27;18651.50;4904516;29;20229;-55
2023/12/19 06:24:06;;;;;;;5.60;4.97;;;;;;;-141.84;53.58;18661.66;4906050;29;20222;-55
2023/12/19 06:26:35;;;;;;;6.97;5.27;;;;;;;-141.84;54.32;18647.44;4906867;29;20750;-56
2023/12/19 06:29:03;;;;;;;6.13;5.00;;;;;;;-141.84;53.39;18667.75;4905352;29;20231;-55
2023/12/19 06:31:32;;;;;;;6.10;5.20;;;;;;;-141.84;55.74;18641.34;4905249;29;20751;-55
2023/12/19 06:34:01;;;;;;;6.10;5.27;;;;;;;-141.84;55.90;18653.53;4908553;29;20291;-55
2023/12/19 06:36:31;;;;;;;8.27;5.47;;;;;;;-141.84;55.66;18647.44;4908204;29;20226;-57
2023/12/19 06:39:01;;;;;;;5.90;5.10;;;;;;;-141.84;54.38;18647.44;4908253;29;20237;-56
2023/12/19 06:41:29;;;;;;;7.17;5.20;;;;;;;-141.84;54.44;18649.47;4905859;29;20647;-55
2023/12/19 06:43:58;;;;;;;7.33;5.77;;;;;;;-141.84;55.20;18653.53;4905772;29;20284;-57
2023/12/19 06:46:27;;;;;;;6.43;5.60;;;;;;;-141.84;54.33;18677.91;4906159;29;20266;-65
2023/12/19 06:48:56;;;;;;;5.53;5.03;;;;;;;-141.84;54.59;18659.63;4905959;29;20628;-57
2023/12/19 06:51:25;;;;;;;7.33;6.27;;;;;;;-141.84;54.16;18669.78;4905515;29;20242;-57
2023/12/19 06:53:55;;;;;;;6.83;5.50;;;;;;;-141.84;54.81;18675.88;4905820;29;20231;-60
2023/12/19 06:56:26;;;;;;;6.97;5.43;;;;;;;-141.84;54.68;18635.25;4904785;29;20230;-60
2023/12/19 06:58:56;;;;;;;6.17;5.17;;;;;;;-141.84;54.71;18667.75;4906439;29;20339;-58
2023/12/19 07:01:25;;;;;;;6.23;5.43;;;;;;;-141.84;53.76;18661.66;4911823;29;20206;-55
2023/12/19 07:03:54;;;;;;;7.83;5.20;;;;;;;-141.84;54.07;18663.69;4907466;29;20214;-55
2023/12/19 07:06:23;;;;;;;5.80;5.20;;;;;;;-141.84;53.82;18657.59;4907177;29;20229;-55
2023/12/19 07:08:52;;;;;;;7.20;5.30;;;;;;;-141.84;54.15;18669.78;4914623;29;20288;-56
2023/12/19 07:11:25;;;;;;;6.50;5.57;;;;;;;-141.84;54.83;18625.09;4907332;29;20684;-54
2023/12/19 07:13:54;;;;;;;5.93;5.10;;;;;;;-141.84;54.88;18639.31;4906497;29;20737;-56
2023/12/19 07:16:25;;;;;;;5.43;4.70;;;;;;;-141.84;55.25;18663.69;4906901;29;20628;-55
2023/12/19 07:18:53;;;;;;;6.27;5.47;;;;;;;-141.84;55.51;18627.13;4903157;29;20234;-55
2023/12/19 07:21:22;;;;;;;6.77;5.60;;;;;;;-141.84;55.76;18639.31;4913051;29;20226;-57
2023/12/19 07:23:52;;;;;;;6.47;5.33;;;;;;;-141.84;55.03;18655.56;4906371;29;20224;-56
2023/12/19 07:26:22;;;;;;;6.60;4.97;;;;;;;-141.84;55.24;18659.63;4907120;29;20781;-57
2023/12/19 07:28:52;;;;;;;6.20;5.60;;;;;;;-141.84;55.01;18655.56;4904591;29;20661;-55
2023/12/19 07:31:25;;;;;;;6.53;5.00;;;;;;;-141.84;54.77;18671.81;4905404;29;20233;-56
2023/12/19 07:33:56;;;;;;;5.50;4.80;;;;;;;-141.84;55.31;18580.41;4911981;29;20746;-56
2023/12/19 07:36:25;;;;;;;5.97;4.83;;;;;;;-141.84;54.55;18643.38;4909808;29;20253;-56
2023/12/19 07:38:55;;;;;;;6.10;4.90;;;;;;;-141.84;55.31;18639.31;4904617;29;20637;-56
2023/12/19 07:41:26;;;;;;;6.80;4.87;;;;;;;-141.84;55.76;18651.50;4904373;29;20235;-55
2023/12/19 07:43:57;;;;;;;5.70;4.80;;;;;;;-141.84;54.73;18667.75;4901218;29;20254;-57
2023/12/19 07:46:25;;;;;;;6.57;4.20;;;;;;;-141.84;54.52;18659.63;4912741;29;20285;-56
2023/12/19 07:48:54;;;;;;;5.00;4.50;;;;;;;-141.84;54.29;18681.97;4896557;29;20302;-56
2023/12/19 07:51:24;;;;;;;6.40;4.50;;;;;;;-141.84;53.89;18673.84;4887447;29;20230;-57
2023/12/19 07:53:54;;;;;;;4.87;4.17;;;;;;;-141.84;54.15;18651.50;4898500;29;20254;-55
2023/12/19 07:56:23;;;;;;;5.50;4.20;;;;;;;-141.84;53.31;18679.94;4906789;29;20304;-56
2023/12/19 07:58:53;;;;;;;4.90;4.20;;;;;;;-141.84;52.99;18681.97;4904805;29;20245;-55
2023/12/19 08:01:23;;;;;;;4.50;3.73;;;;;;;-141.84;53.14;18663.69;4909159;29;20285;-56
2023/12/19 08:03:51;;;;;;;5.17;3.60;;;;;;;-141.84;52.87;18704.31;4904745;29;20223;-57
2023/12/19 08:06:20;;;;;;;5.57;3.93;;;;;;;-141.84;52.83;18669.78;4906813;29;20218;-52
2023/12/19 08:08:50;;;;;;;4.30;3.80;;;;;;;-141.84;53.63;18669.78;4904179;29;20324;-57
2023/12/19 08:11:19;;;;;;;5.00;3.60;;;;;;;-141.84;52.06;18696.19;4903893;29;20226;-56
2023/12/19 08:13:50;;;;;;;4.53;3.97;;;;;;;-141.84;51.64;18708.41;4903992;29;20844;-56
2023/12/19 08:16:20;;;;;;;6.43;3.53;;;;;;;-141.84;50.95;18714.50;4908745;29;20651;-56
2023/12/19 08:18:51;;;;;;;5.00;3.43;;;;;;;-141.84;50.21;18708.41;4906040;29;20698;-56
2023/12/19 08:21:20;;;;;;;4.53;3.97;;;;;;;-141.84;50.58;18698.22;4898024;29;20230;-59
2023/12/19 08:23:50;;;;;;;4.50;4.03;;;;;;;-141.84;49.98;18734.81;4906043;29;20341;-54
2023/12/19 08:26:19;;;;;;;5.57;3.73;;;;;;;-141.84;49.48;18724.66;4906059;29;20261;-55
2023/12/19 08:28:47;;;;;;;5.57;3.80;;;;;;;-141.84;49.23;18724.66;4903484;29;20238;-56
2023/12/19 08:31:16;;;;;;;3.83;3.10;;;;;;;-141.84;48.82;18757.16;4904387;29;20286;-54
2023/12/19 08:33:44;;;;;;;5.23;3.50;;;;;;;-141.84;48.74;18740.91;4909290;29;20277;-56
2023/12/19 08:36:14;;;;;;;6.17;3.27;;;;;;;-141.84;48.46;18775.44;4905937;29;20313;-55
2023/12/19 08:39:02;;;;;;;6.47;3.40;;;;;;;-141.84;48.72;18757.16;4905206;29;20313;-56
2023/12/19 08:41:31;;;;;;;4.43;3.60;;;;;;;-141.84;48.71;18749.03;4903367;29;20754;-56
2023/12/19 08:43:59;;;;;;;4.93;3.63;;;;;;;-141.84;49.16;18728.72;4909260;29;20769;-54
2023/12/19 08:46:28;;;;;;;4.00;3.60;;;;;;;-141.84;49.55;18700.25;4904564;29;20269;-57
2023/12/19 08:48:57;;;;;;;3.80;3.43;;;;;;;-141.84;49.67;18712.47;4903564;29;20660;-55
2023/12/19 08:51:27;;;;;;;5.53;3.80;;;;;;;-141.84;49.62;18718.56;4904705;29;20238;-55
2023/12/19 08:53:56;;;;;;;5.70;3.80;;;;;;;-141.84;50.09;18692.13;4909271;29;20290;-57
2023/12/19 08:56:24;;;;;;;4.97;3.57;;;;;;;-141.84;50.09;18749.03;4905494;29;20698;-55
2023/12/19 08:58:53;;;;;;;4.67;3.87;;;;;;;-141.84;49.60;18728.72;4905345;29;20226;-57
2023/12/19 09:01:21;;;;;;;4.77;4.10;;;;;;;-141.84;50.54;18716.53;4906070;29;20229;-57
2023/12/19 09:03:50;;;;;;;6.10;4.00;;;;;;;-141.84;50.54;18734.81;4905351;29;20226;-57
2023/12/19 09:06:19;;;;;;;4.47;3.80;;;;;;;-141.84;50.54;18704.31;4905484;29;20225;-56
2023/12/19 09:08:49;;;;;;;5.50;3.57;;;;;;;-141.84;49.64;18730.75;4905819;29;20316;-56
2023/12/19 09:11:17;;;;;;;4.67;3.97;;;;;;;-141.84;51.07;18728.72;4905679;29;20218;-56
2023/12/19 09:13:46;;;;;;;4.97;4.47;;;;;;;-141.84;50.81;18728.72;4903746;29;20213;-54
2023/12/19 09:16:15;;;;;;;4.87;4.07;;;;;;;-141.84;50.65;18716.53;4904185;29;20711;-52
2023/12/19 09:18:43;;;;;;;5.60;4.00;;;;;;;-141.84;50.62;18712.47;4902786;29;20306;-53
2023/12/19 09:21:12;;;;;;;4.63;3.87;;;;;;;-141.84;50.89;18755.13;4903856;29;20313;-54
2023/12/19 09:23:41;;;;;;;4.47;3.90;;;;;;;-141.84;50.97;18759.19;4904929;29;20256;-56
2023/12/19 09:26:13;;;;;;;4.63;3.60;;;;;;;-141.84;50.98;18728.72;4905428;29;20234;-55
2023/12/19 09:28:42;;;;;;;5.07;3.73;;;;;;;-141.84;51.68;18728.72;4902943;29;20587;-57
2023/12/19 09:31:11;;;;;;;5.03;4.00;;;;;;;-141.84;52.14;18712.47;4903210;29;20751;-56
2023/12/19 09:33:40;;;;;;;4.37;3.90;;;;;;;-141.84;52.07;18740.91;4908072;29;20226;-57
2023/12/19 09:36:10;;;;;;;4.83;4.00;;;;;;;-141.84;51.84;18720.59;4905111;29;20582;-54
2023/12/19 09:38:38;;;;;;;6.43;3.97;;;;;;;-141.84;50.17;18761.22;4904890;29;20266;-56
2023/12/19 09:41:07;;;;;;;5.23;3.90;;;;;;;-141.84;50.26;18757.16;4904798;29;20261;-54
2023/12/19 09:43:37;;;;;;;4.33;3.53;;;;;;;-141.84;50.39;18740.91;4902376;29;20654;-57
2023/12/19 09:46:07;;;;;;;4.70;4.00;;;;;;;-141.84;50.76;18757.16;4907655;29;20203;-58
2023/12/19 09:48:37;;;;;;;5.80;4.10;;;;;;;-141.84;50.30;18791.69;4904710;29;20294;-57
2023/12/19 09:51:16;;;;;;;4.43;4.03;;;;;;;-141.84;50.61;18767.31;4905075;29;20226;-57
2023/12/19 09:53:47;;;;;;;5.20;4.13;;;;;;;-141.84;50.14;18755.13;4903780;29;20753;-57
2023/12/19 09:56:16;;;;;;;4.60;4.03;;;;;;;-141.84;49.68;18803.88;4902746;29;20234;-56
2023/12/19 09:58:48;;;;;;;6.03;3.93;;;;;;;-141.84;49.39;18801.84;4903193;29;20262;-56
2023/12/19 10:01:17;;;;;;;4.90;4.40;;;;;;;-141.84;49.79;18803.88;4910711;29;20191;-53
2023/12/19 10:03:49;;;;;;;4.70;4.00;;;;;;;-141.84;49.24;18805.91;4905556;29;20230;-55
2023/12/19 10:06:18;;;;;;;6.10;3.90;;;;;;;-141.84;48.52;18818.09;4908561;29;20215;-55
2023/12/19 10:08:48;;;;;;;4.50;4.10;;;;;;;-141.84;48.10;18830.31;4908450;29;20283;-55
2023/12/19 10:11:21;;;;;;;5.10;3.67;;;;;;;-141.84;47.79;18824.22;4908586;29;20600;-57
2023/12/19 10:13:51;;;;;;;4.93;4.30;;;;;;;-141.84;47.85;18834.38;4906269;29;20230;-58
2023/12/19 10:16:20;;;;;;;4.17;3.73;;;;;;;-141.84;48.67;18830.31;4905959;29;20578;-58
2023/12/19 10:19:01;;;;;;;5.00;4.50;;;;;;;-141.84;48.62;18777.47;4907148;29;20216;-57
2023/12/19 10:21:32;;;;;;;6.07;4.70;;;;;;;-141.84;49.45;18824.22;4908255;29;20234;-56
2023/12/19 10:24:09;;;;;;;5.53;4.47;;;;;;;-141.84;49.31;18795.75;4901184;29;20747;-55
2023/12/19 10:26:38;;;;;;;6.27;4.80;;;;;;;-141.84;49.63;18775.44;4901157;29;20251;-54
2023/12/19 10:29:09;;;;;;;6.67;4.70;;;;;;;-141.84;50.61;18765.28;4910320;29;20237;-56
2023/12/19 10:31:37;;;;;;;5.00;4.50;;;;;;;-141.84;51.09;18799.81;4906552;29;20255;-55
2023/12/19 10:34:07;;;;;;;6.40;4.60;;;;;;;-141.84;50.30;18797.78;4913967;29;20195;-56
2023/12/19 10:36:36;;;;;;;5.13;4.10;;;;;;;-141.84;50.69;18781.53;4907909;29;20316;-53
2023/12/19 10:39:07;;;;;;;5.10;4.13;;;;;;;-141.84;50.96;18785.59;4906166;29;20604;-55
2023/12/19 10:41:37;;;;;;;4.70;4.07;;;;;;;-141.84;51.57;18769.34;4905476;29;20718;-53
2023/12/19 10:44:08;;;;;;;5.37;4.40;;;;;;;-141.84;50.79;18744.97;4907247;29;20245;-55
2023/12/19 10:46:38;;;;;;;5.10;4.60;;;;;;;-141.84;51.33;18777.47;4905505;29;20210;-57
2023/12/19 10:49:07;;;;;;;5.83;4.00;;;;;;;-141.84;50.67;18816.06;4902676;29;20233;-57
2023/12/19 10:51:37;;;;;;;6.30;4.40;;;;;;;-141.84;50.27;18814.03;4905834;29;20376;-57
2023/12/19 10:54:09;;;;;;;4.50;4.10;;;;;;;-141.84;50.58;18783.56;4908399;29;21696;-55
2023/12/19 10:56:58;;;;;;;5.00;4.43;;;;;;;-141.84;50.56;18773.41;4907509;29;20234;-52
2023/12/19 10:59:32;;;;;;;4.90;4.37;;;;;;;-141.84;50.53;18773.41;4905004;29;20321;-55
2023/12/19 11:02:05;;;;;;;5.23;4.10;;;;;;;-141.84;50.51;18797.78;4916695;29;20226;-53
2023/12/19 11:04:42;;;;;;;4.93;4.50;;;;;;;-141.84;50.51;18785.59;4905392;29;20345;-55
2023/12/19 11:07:13;;;;;;;5.40;4.67;;;;;;;-141.84;52.03;18777.47;4905406;29;20192;-55
2023/12/19 11:09:46;;;;;;;4.57;4.17;;;;;;;-141.84;52.23;18761.22;4904725;29;20230;-56
2023/12/19 11:12:16;;;;;;;8.20;4.53;;;;;;;-141.84;51.49;18761.22;4908961;29;20317;-53
2023/12/19 11:14:45;;;;;;;4.87;4.10;;;;;;;-141.84;51.79;18771.38;4906324;29;20257;-57
2023/12/19 11:17:20;;;;;;;5.77;4.70;;;;;;;-141.84;51.81;18775.44;4901903;29;20700;-53
2023/12/19 11:19:56;;;;;;;5.43;4.67;;;;;;;-141.84;52.09;18763.25;4903858;29;20235;-55
2023/12/19 11:22:32;;;;;;;5.20;4.70;;;;;;;-141.84;51.49;18773.41;4905295;29;20195;-55
2023/12/19 11:25:10;;;;;;;5.83;4.20;;;;;;;-141.84;52.61;18761.22;4904771;29;20233;-57
2023/12/19 11:27:55;;;;;;;5.57;4.60;;;;;;;-141.84;52.69;18781.53;4904517;29;20257;-58